createdAt,value
2022-08-05T00:02:07.827Z,32.40
2022-08-05T00:04:57.208Z,32.30
2022-08-05T00:08:00.184Z,32.40
2022-08-05T00:10:47.310Z,32.30
2022-08-05T00:13:38.864Z,32.30
2022-08-05T00:16:36.290Z,32.30
2022-08-05T00:19:33.595Z,32.30
2022-08-05T00:22:26.558Z,32.30
2022-08-05T00:25:12.902Z,32.30
2022-08-05T00:27:59.951Z,32.30
2022-08-05T00:30:46.271Z,32.20
2022-08-05T00:34:55.464Z,32.20
2022-08-05T00:37:09.673Z,32.10
2022-08-05T00:39:58.751Z,32.10
2022-08-05T00:42:48.217Z,32.10
2022-08-05T00:45:39.162Z,32.10
2022-08-05T00:48:31.529Z,32.10
2022-08-05T00:51:51.031Z,32.00
2022-08-05T00:54:24.379Z,32.00
2022-08-05T00:57:14.823Z,31.90
2022-08-05T01:00:00.567Z,31.80
2022-08-05T01:02:46.789Z,31.80
2022-08-05T01:05:36.593Z,31.60
2022-08-05T01:08:41.695Z,31.60
2022-08-05T01:11:37.444Z,31.60
2022-08-05T01:14:42.097Z,31.50
2022-08-05T01:17:40.346Z,31.40
2022-08-05T01:20:48.714Z,31.50
2022-08-05T01:23:54.033Z,31.50
2022-08-05T01:27:17.752Z,31.40
2022-08-05T01:30:17.691Z,31.30
2022-08-05T01:33:09.818Z,31.20
2022-08-05T01:35:59.543Z,31.30
2022-08-05T01:38:49.863Z,31.20
2022-08-05T01:41:38.024Z,31.20
2022-08-05T01:44:35.241Z,31.10
2022-08-05T01:47:24.644Z,31.10
2022-08-05T01:50:31.539Z,31.10
2022-08-05T01:53:57.545Z,31.00
2022-08-05T01:58:10.897Z,31.00
2022-08-05T01:59:41.150Z,30.90
2022-08-05T02:02:37.402Z,31.00
2022-08-05T02:05:37.037Z,31.00
2022-08-05T02:08:30.787Z,31.00
2022-08-05T02:11:23.719Z,30.90
2022-08-05T02:14:14.661Z,30.90
2022-08-05T02:17:16.812Z,30.80
2022-08-05T02:20:22.295Z,30.90
2022-08-05T02:23:11.115Z,30.80
2022-08-05T02:26:00.642Z,30.80
2022-08-05T02:28:50.107Z,30.70
2022-08-05T02:31:36.958Z,30.60
2022-08-05T02:34:24.213Z,30.70
2022-08-05T02:37:15.327Z,30.70
2022-08-05T02:40:05.262Z,30.70
2022-08-05T02:42:56.701Z,30.70
2022-08-05T02:45:52.806Z,30.60
2022-08-05T02:48:40.628Z,30.50
2022-08-05T02:52:03.946Z,30.50
2022-08-05T02:54:41.147Z,30.40
2022-08-05T02:58:10.177Z,30.30
2022-08-05T03:00:36.957Z,30.20
2022-08-05T03:03:26.625Z,30.10
2022-08-05T03:06:54.598Z,30.30
2022-08-05T03:09:36.172Z,30.30
2022-08-05T03:12:36.864Z,30.30
2022-08-05T03:15:24.265Z,30.20
2022-08-05T03:18:10.990Z,30.10
2022-08-05T03:20:58.072Z,30.20
2022-08-05T03:23:45.572Z,30.10
2022-08-05T03:26:32.779Z,30.20
2022-08-05T03:29:19.163Z,30.10
2022-08-05T03:32:08.717Z,30.20
2022-08-05T03:34:54.621Z,30.30
2022-08-05T03:37:46.697Z,30.20
2022-08-05T03:40:33.214Z,30.20
2022-08-05T03:44:09.948Z,30.20
2022-08-05T03:46:29.520Z,30.10
2022-08-05T03:49:16.069Z,30.20
2022-08-05T03:52:37.323Z,30.20
2022-08-05T03:56:05.556Z,30.20
2022-08-05T03:58:29.185Z,30.10
2022-08-05T04:01:20.742Z,30.10
2022-08-05T04:04:10.132Z,30.00
2022-08-05T04:06:58.057Z,30.00
2022-08-05T04:09:53.448Z,29.90
2022-08-05T04:15:25.256Z,29.80
2022-08-05T04:18:22.439Z,29.90
2022-08-05T04:21:11.637Z,29.70
2022-08-05T04:24:06.316Z,29.70
2022-08-05T04:26:54.863Z,29.60
2022-08-05T04:29:44.622Z,29.50
2022-08-05T04:32:33.233Z,29.50
2022-08-05T04:35:20.018Z,29.40
2022-08-05T04:38:06.995Z,29.30
2022-08-05T04:40:52.932Z,29.30
2022-08-05T04:43:40.515Z,29.20
2022-08-05T04:46:33.212Z,29.10
2022-08-05T04:49:19.251Z,29.20
2022-08-05T04:52:27.962Z,29.30
2022-08-05T04:55:15.413Z,29.40
2022-08-05T04:58:06.278Z,29.40
2022-08-05T05:00:58.469Z,29.50
2022-08-05T05:03:44.946Z,29.50
2022-08-05T05:06:39.233Z,29.50
2022-08-05T05:09:30.085Z,29.60
2022-08-05T05:12:18.322Z,29.60
2022-08-05T05:15:10.942Z,29.70
2022-08-05T05:17:57.873Z,29.70
2022-08-05T05:20:47.522Z,29.70
2022-08-05T05:23:39.119Z,29.80
2022-08-05T05:26:42.738Z,29.90
2022-08-05T05:30:03.268Z,29.90
2022-08-05T05:32:37.714Z,30.00
2022-08-05T05:35:26.799Z,30.10
2022-08-05T05:38:22.607Z,30.10
2022-08-05T05:41:13.252Z,30.10
2022-08-05T05:44:02.464Z,30.10
2022-08-05T05:47:13.319Z,30.20
2022-08-05T05:50:10.197Z,30.20
2022-08-05T05:53:01.916Z,30.10
2022-08-05T05:56:09.459Z,30.20
2022-08-05T05:58:55.398Z,30.20
2022-08-05T06:01:57.785Z,30.20
2022-08-05T06:04:44.008Z,30.30
2022-08-05T06:07:42.065Z,30.30
2022-08-05T06:10:29.454Z,30.20
2022-08-05T06:13:22.677Z,30.30
2022-08-05T06:16:30.333Z,30.30
2022-08-05T06:19:26.239Z,30.40
2022-08-05T06:22:27.983Z,30.40
2022-08-05T06:25:25.305Z,30.30
2022-08-05T06:28:21.935Z,30.40
2022-08-05T06:31:11.231Z,30.40
2022-08-05T06:34:08.751Z,30.40
2022-08-05T06:36:58.231Z,30.50
2022-08-05T06:39:44.448Z,30.60
2022-08-05T06:42:30.809Z,30.60
2022-08-05T06:45:21.037Z,30.70
2022-08-05T06:48:36.080Z,30.70
2022-08-05T06:51:23.832Z,30.70
2022-08-05T06:54:18.232Z,30.70
2022-08-05T06:57:56.948Z,30.80
2022-08-05T07:00:12.466Z,30.80
2022-08-05T07:02:58.549Z,30.80
2022-08-05T07:05:44.739Z,30.90
2022-08-05T07:08:32.201Z,30.80
2022-08-05T07:11:22.327Z,30.80
2022-08-05T07:14:32.293Z,30.80
2022-08-05T07:18:07.437Z,30.90
2022-08-05T07:20:36.295Z,31.00
2022-08-05T07:23:26.275Z,31.00
2022-08-05T07:26:13.389Z,31.00
2022-08-05T07:29:00.286Z,31.10
2022-08-05T07:31:54.643Z,31.00
2022-08-05T07:34:42.472Z,31.10
2022-08-05T07:37:29.202Z,31.10
2022-08-05T07:40:32.244Z,31.10
2022-08-05T07:43:20.765Z,31.00
2022-08-05T07:46:07.022Z,31.10
2022-08-05T07:49:10.903Z,31.20
2022-08-05T07:51:57.279Z,31.20
2022-08-05T07:54:47.628Z,31.00
2022-08-05T07:57:55.188Z,31.10
2022-08-05T08:00:40.347Z,31.20
2022-08-05T08:03:44.559Z,31.30
2022-08-05T08:06:31.198Z,31.30
2022-08-05T08:09:17.535Z,31.30
2022-08-05T08:12:19.035Z,31.50
2022-08-05T08:15:15.300Z,31.50
2022-08-05T08:18:03.516Z,31.40
2022-08-05T08:21:03.057Z,31.50
2022-08-05T08:24:03.163Z,31.60
2022-08-05T08:26:50.849Z,31.60
2022-08-05T08:30:05.984Z,31.60
2022-08-05T08:32:44.254Z,31.70
2022-08-05T08:35:34.763Z,31.60
2022-08-05T08:38:35.338Z,31.70
2022-08-05T08:41:26.321Z,31.70
2022-08-05T08:45:22.114Z,31.70
2022-08-05T08:48:05.880Z,31.80
2022-08-05T08:51:22.134Z,31.80
2022-08-05T08:53:54.876Z,31.80
2022-08-05T08:56:47.763Z,31.80
2022-08-05T08:59:36.186Z,31.80
2022-08-05T09:02:26.715Z,31.90
2022-08-05T09:05:17.917Z,31.90
2022-08-05T09:08:04.282Z,32.00
2022-08-05T09:10:51.344Z,32.00
2022-08-05T09:14:00.631Z,32.00
2022-08-05T09:16:48.820Z,32.10
2022-08-05T09:19:36.265Z,32.10
2022-08-05T09:22:31.741Z,32.10
2022-08-05T09:25:24.553Z,32.10
2022-08-05T09:28:32.587Z,32.10
2022-08-05T09:31:43.914Z,32.00
2022-08-05T09:34:26.017Z,32.00
2022-08-05T09:38:12.689Z,32.10
2022-08-05T09:40:40.962Z,32.30
2022-08-05T09:43:40.750Z,32.30
2022-08-05T09:46:32.616Z,32.20
2022-08-05T09:49:54.846Z,32.40
2022-08-05T09:52:36.279Z,32.50
2022-08-05T09:55:56.370Z,32.50
2022-08-05T09:58:42.669Z,32.50
2022-08-05T10:01:32.402Z,32.50
2022-08-05T10:04:18.567Z,32.50
2022-08-05T10:07:20.026Z,32.60
2022-08-05T10:10:28.209Z,32.60
2022-08-05T10:13:49.260Z,32.70
2022-08-05T10:16:41.608Z,32.50
2022-08-05T10:19:32.072Z,32.50
2022-08-05T10:22:37.981Z,32.60
2022-08-05T10:25:29.327Z,32.60
2022-08-05T10:28:19.463Z,32.60
2022-08-05T10:32:49.411Z,32.60
2022-08-05T10:34:25.743Z,32.70
2022-08-05T10:37:16.967Z,32.70
2022-08-05T10:40:17.593Z,32.80
2022-08-05T10:43:23.667Z,33.00
2022-08-05T10:46:23.872Z,32.90
2022-08-05T10:49:16.920Z,33.00
2022-08-05T10:52:05.496Z,33.00
2022-08-05T10:55:08.020Z,32.90
2022-08-05T10:58:15.660Z,32.90
2022-08-05T11:01:06.143Z,33.00
2022-08-05T11:04:11.993Z,33.10
2022-08-05T11:07:01.328Z,33.10
2022-08-05T11:09:50.520Z,33.20
2022-08-05T11:12:54.417Z,33.30
2022-08-05T11:16:01.142Z,33.40
2022-08-05T11:18:47.969Z,33.40
2022-08-05T11:21:48.695Z,33.40
2022-08-05T11:24:35.281Z,33.40
2022-08-05T11:27:49.188Z,33.40
2022-08-05T11:31:01.520Z,33.50
2022-08-05T11:33:52.268Z,33.70
2022-08-05T11:36:52.790Z,33.70
2022-08-05T11:40:00.780Z,33.70
2022-08-05T11:42:50.169Z,33.70
2022-08-05T11:46:15.318Z,33.70
2022-08-05T11:48:55.238Z,33.90
2022-08-05T11:51:49.504Z,33.90
2022-08-05T11:54:38.098Z,34.20
2022-08-05T11:58:08.697Z,34.10
2022-08-05T12:00:38.342Z,34.10
2022-08-05T12:03:31.428Z,34.20
2022-08-05T12:06:24.064Z,34.20
2022-08-05T12:09:10.272Z,34.30
2022-08-05T12:12:08.270Z,34.40
2022-08-05T12:14:56.215Z,34.50
2022-08-05T12:18:03.823Z,34.50
2022-08-05T12:20:50.037Z,34.80
2022-08-05T12:23:36.348Z,34.80
2022-08-05T12:26:53.172Z,35.10
2022-08-05T12:29:39.266Z,35.40
2022-08-05T12:32:25.856Z,35.40
2022-08-05T12:35:16.813Z,35.60
2022-08-05T12:38:07.631Z,35.80
2022-08-05T12:40:58.069Z,36.00
2022-08-05T12:43:56.474Z,36.10
2022-08-05T12:46:52.032Z,36.30
2022-08-05T12:50:05.001Z,36.50
2022-08-05T12:52:56.602Z,36.70
2022-08-05T12:55:43.659Z,36.90
2022-08-05T12:58:48.268Z,37.00
2022-08-05T13:02:00.873Z,37.40
2022-08-05T13:04:52.548Z,37.90
2022-08-05T13:07:59.220Z,39.60
2022-08-05T13:10:48.741Z,41.90
2022-08-05T13:14:05.134Z,42.10
2022-08-05T13:16:57.740Z,41.40
2022-08-05T13:20:04.421Z,41.00
2022-08-05T13:22:53.373Z,41.70
2022-08-05T13:25:52.437Z,43.30
2022-08-05T13:28:45.001Z,44.40
2022-08-05T13:32:02.827Z,45.30
2022-08-05T13:34:37.976Z,47.10
2022-08-05T13:37:34.215Z,47.60
2022-08-05T13:40:31.293Z,48.90
2022-08-05T13:43:45.550Z,49.30
2022-08-05T13:46:38.058Z,48.70
2022-08-05T13:49:37.317Z,48.90
2022-08-05T13:52:31.442Z,49.10
2022-08-05T13:55:41.196Z,50.50
2022-08-05T13:58:30.391Z,51.30
2022-08-05T14:01:17.557Z,52.60
2022-08-05T14:04:26.434Z,52.40
2022-08-05T14:07:25.399Z,51.40
2022-08-05T14:10:28.093Z,49.80
2022-08-05T14:13:15.447Z,49.70
2022-08-05T14:16:08.156Z,48.90
2022-08-05T14:18:57.222Z,48.00
2022-08-05T14:22:09.151Z,48.00
2022-08-05T14:24:57.277Z,48.20
2022-08-05T14:27:47.414Z,50.80
2022-08-05T14:30:34.389Z,51.50
2022-08-05T14:33:22.836Z,52.90
2022-08-05T14:36:09.456Z,52.10
2022-08-05T14:38:57.004Z,52.00
2022-08-05T14:42:02.376Z,50.70
2022-08-05T14:44:49.724Z,50.90
2022-08-05T14:48:02.658Z,49.40
2022-08-05T14:50:42.433Z,52.10
2022-08-05T14:53:29.775Z,52.80
2022-08-05T14:56:16.317Z,53.20
2022-08-05T14:59:08.717Z,53.70
2022-08-05T15:01:55.274Z,52.90
2022-08-05T15:04:43.223Z,53.00
2022-08-05T15:08:06.346Z,53.10
2022-08-05T15:10:35.500Z,53.00
2022-08-05T15:13:24.346Z,52.80
2022-08-05T15:16:27.613Z,51.90
2022-08-05T15:19:23.618Z,52.70
2022-08-05T15:22:09.764Z,54.20
2022-08-05T15:24:59.210Z,54.40
2022-08-05T15:27:52.041Z,54.40
2022-08-05T15:30:38.383Z,53.80
2022-08-05T15:34:05.481Z,53.70
2022-08-05T15:36:31.202Z,52.80
2022-08-05T15:41:00.732Z,54.20
2022-08-05T15:42:50.438Z,51.50
2022-08-05T15:45:38.181Z,50.90
2022-08-05T15:48:25.632Z,52.60
2022-08-05T15:51:12.085Z,53.00
2022-08-05T15:53:57.844Z,53.80
2022-08-05T15:56:44.878Z,53.10
2022-08-05T15:59:31.634Z,52.30
2022-08-05T16:02:25.135Z,52.80
2022-08-05T16:05:12.231Z,53.70
2022-08-05T16:08:00.056Z,53.50
2022-08-05T16:10:46.191Z,50.40
2022-08-05T16:13:34.740Z,47.60
2022-08-05T16:16:21.266Z,45.40
2022-08-05T16:19:12.097Z,44.20
2022-08-05T16:22:11.242Z,43.90
2022-08-05T16:25:07.945Z,43.70
2022-08-05T16:28:04.825Z,43.50
2022-08-05T16:30:52.974Z,42.80
2022-08-05T16:33:41.586Z,42.70
2022-08-05T16:36:27.959Z,42.30
2022-08-05T16:39:14.213Z,42.00
2022-08-05T16:42:14.007Z,41.50
2022-08-05T16:46:05.421Z,41.40
2022-08-05T16:48:10.414Z,41.30
2022-08-05T16:50:56.456Z,41.10
2022-08-05T16:54:04.304Z,40.90
2022-08-05T16:56:52.271Z,40.80
2022-08-05T16:59:49.565Z,40.60
2022-08-05T17:02:45.301Z,40.80
2022-08-05T17:05:32.132Z,41.20
2022-08-05T17:08:35.806Z,40.90
2022-08-05T17:11:25.770Z,40.30
2022-08-05T17:14:13.024Z,40.40
2022-08-05T17:17:14.192Z,40.00
2022-08-05T17:20:01.453Z,39.80
2022-08-05T17:22:55.213Z,39.20
2022-08-05T17:25:41.194Z,39.20
2022-08-05T17:28:27.123Z,39.20
2022-08-05T17:31:24.111Z,39.10
2022-08-05T17:34:20.365Z,38.80
2022-08-05T17:37:39.475Z,38.60
2022-08-05T17:40:25.824Z,38.70
2022-08-05T17:43:11.327Z,38.30
2022-08-05T17:45:58.915Z,37.90
2022-08-05T17:48:47.730Z,37.80
2022-08-05T17:51:40.476Z,37.50
2022-08-05T17:54:26.683Z,37.40
2022-08-05T17:57:12.507Z,37.20
2022-08-05T18:00:04.702Z,37.20
2022-08-05T18:02:51.520Z,37.00
2022-08-05T18:05:39.016Z,36.90
2022-08-05T18:08:25.188Z,36.90
2022-08-05T18:11:11.486Z,36.60
2022-08-05T18:14:13.415Z,36.50
2022-08-05T18:17:06.507Z,36.20
2022-08-05T18:20:14.081Z,36.00
2022-08-05T18:23:09.217Z,35.80
2022-08-05T18:25:59.410Z,35.60
2022-08-05T18:28:46.400Z,35.50
2022-08-05T18:31:35.433Z,35.40
2022-08-05T18:34:22.142Z,35.40
2022-08-05T18:37:12.615Z,35.10
2022-08-05T18:40:33.674Z,34.90
2022-08-05T18:43:05.116Z,34.90
2022-08-05T18:45:56.172Z,34.70
2022-08-05T18:48:42.847Z,34.60
2022-08-05T18:52:05.820Z,34.60
2022-08-05T18:54:54.523Z,34.50
2022-08-05T18:57:43.590Z,34.30
2022-08-05T19:00:38.653Z,34.20
2022-08-05T19:03:52.935Z,34.20
2022-08-05T19:06:37.316Z,34.20
2022-08-05T19:09:39.022Z,34.00
2022-08-05T19:12:26.687Z,33.90
2022-08-05T19:15:57.268Z,33.80
2022-08-05T19:18:22.667Z,33.70
2022-08-05T19:21:09.744Z,33.70
2022-08-05T19:24:05.400Z,33.60
2022-08-05T19:26:55.634Z,33.70
2022-08-05T19:29:43.206Z,33.40
2022-08-05T19:32:30.827Z,33.30
2022-08-05T19:35:16.988Z,33.30
2022-08-05T19:38:08.227Z,33.10
2022-08-05T19:40:55.277Z,33.00
2022-08-05T19:44:06.342Z,33.00
2022-08-05T19:46:50.374Z,32.80
2022-08-05T19:49:35.891Z,32.70
2022-08-05T19:52:31.034Z,32.50
2022-08-05T19:56:14.632Z,32.40
2022-08-05T19:58:28.910Z,32.40
2022-08-05T20:01:15.754Z,32.30
2022-08-05T20:04:13.170Z,32.40
2022-08-05T20:06:59.716Z,32.10
2022-08-05T20:09:53.635Z,32.00
2022-08-05T20:12:46.155Z,32.00
2022-08-05T20:15:52.389Z,31.80
2022-08-05T20:18:40.446Z,31.60
2022-08-05T20:21:26.153Z,31.70
2022-08-05T20:24:12.585Z,31.70
2022-08-05T20:27:01.832Z,31.50
2022-08-05T20:29:57.516Z,31.60
2022-08-05T20:32:45.445Z,31.40
2022-08-05T20:35:31.643Z,31.30
2022-08-05T20:38:29.516Z,31.30
2022-08-05T20:41:23.969Z,31.40
2022-08-05T20:44:19.161Z,31.20
2022-08-05T20:47:16.914Z,31.40
2022-08-05T20:50:07.345Z,31.20
2022-08-05T20:52:53.936Z,31.20
2022-08-05T20:55:56.841Z,31.30
2022-08-05T20:58:46.321Z,31.40
2022-08-05T21:01:38.777Z,31.20
2022-08-05T21:04:27.015Z,31.10
2022-08-05T21:07:13.903Z,31.20
2022-08-05T21:10:00.307Z,31.00
2022-08-05T21:12:57.783Z,30.80
2022-08-05T21:15:51.311Z,30.80
2022-08-05T21:18:37.232Z,30.90
2022-08-05T21:21:24.443Z,31.10
2022-08-05T21:24:12.899Z,30.80
2022-08-05T21:26:59.411Z,30.70
2022-08-05T21:29:48.479Z,30.80
2022-08-05T21:32:36.460Z,30.90
2022-08-05T21:35:29.887Z,30.70
2022-08-05T21:38:16.578Z,30.70
2022-08-05T21:41:03.477Z,30.90
2022-08-05T21:43:50.988Z,30.70
2022-08-05T21:46:49.869Z,30.60
2022-08-05T21:49:48.215Z,30.70
2022-08-05T21:52:47.299Z,30.70
2022-08-05T21:56:01.362Z,30.50
2022-08-05T21:58:42.144Z,30.40
2022-08-05T22:01:28.289Z,30.10
2022-08-05T22:04:25.468Z,30.00
2022-08-05T22:07:12.024Z,30.10
2022-08-05T22:09:57.746Z,30.00
2022-08-05T22:12:44.807Z,29.90
2022-08-05T22:16:01.808Z,30.00
2022-08-05T22:18:36.845Z,30.10
2022-08-05T22:21:24.920Z,30.00
2022-08-05T22:24:40.294Z,30.10
2022-08-05T22:28:08.359Z,30.10
2022-08-05T22:30:56.033Z,30.00
2022-08-05T22:33:55.519Z,30.00
2022-08-05T22:36:48.156Z,30.00
2022-08-05T22:39:34.935Z,30.10
2022-08-05T22:42:25.285Z,30.10
2022-08-05T22:45:11.793Z,30.10
2022-08-05T22:47:58.224Z,30.00
2022-08-05T22:50:46.082Z,30.00
2022-08-05T22:53:41.463Z,30.00
2022-08-05T22:56:29.721Z,30.10
2022-08-05T22:59:45.331Z,30.30
2022-08-05T23:02:28.813Z,30.20
2022-08-05T23:05:16.557Z,30.20
2022-08-05T23:08:02.846Z,30.30
2022-08-05T23:10:53.258Z,30.20
2022-08-05T23:13:41.912Z,30.20
2022-08-05T23:16:46.290Z,30.20
2022-08-05T23:19:41.863Z,30.00
2022-08-05T23:22:37.580Z,30.10
2022-08-05T23:25:53.302Z,29.90
2022-08-05T23:28:31.031Z,30.20
2022-08-05T23:31:18.004Z,30.00
2022-08-05T23:34:06.786Z,30.00
2022-08-05T23:36:53.400Z,30.10
2022-08-05T23:39:54.002Z,30.20
2022-08-05T23:42:40.963Z,30.20
2022-08-05T23:45:33.269Z,30.30
2022-08-05T23:48:20.235Z,30.20
2022-08-05T23:51:06.867Z,30.20
2022-08-05T23:53:53.957Z,30.10
2022-08-05T23:56:47.344Z,30.20
